createdAt,value
2022-12-06T00:01:55.466Z,9.20
2022-12-06T00:04:21.971Z,9.19
2022-12-06T00:06:50.044Z,9.25
2022-12-06T00:09:24.631Z,9.26
2022-12-06T00:11:51.608Z,8.74
2022-12-06T00:14:19.274Z,9.29
2022-12-06T00:16:46.975Z,8.91
2022-12-06T00:19:16.722Z,9.31
2022-12-06T00:21:43.783Z,8.98
2022-12-06T00:24:13.318Z,8.81
2022-12-06T00:26:42.000Z,8.65
2022-12-06T00:29:13.416Z,8.66
2022-12-06T00:31:40.058Z,8.23
2022-12-06T00:34:06.655Z,8.15
2022-12-06T00:36:36.542Z,8.02
2022-12-06T00:39:06.813Z,8.06
2022-12-06T00:41:34.316Z,8.23
2022-12-06T00:44:00.788Z,8.01
2022-12-06T00:46:31.111Z,7.98
2022-12-06T00:48:59.465Z,8.04
2022-12-06T00:51:29.183Z,8.17
2022-12-06T00:53:55.747Z,8.10
2022-12-06T00:56:23.021Z,7.86
2022-12-06T00:58:49.586Z,7.74
2022-12-06T01:01:19.084Z,7.75
2022-12-06T01:03:47.343Z,7.48
2022-12-06T01:06:15.762Z,7.60
2022-12-06T01:08:43.236Z,7.53
2022-12-06T01:11:13.248Z,7.85
2022-12-06T01:13:39.756Z,7.82
2022-12-06T01:16:10.827Z,8.05
2022-12-06T01:18:38.293Z,8.02
2022-12-06T01:21:07.540Z,7.96
2022-12-06T01:23:34.212Z,7.91
2022-12-06T01:26:01.124Z,7.75
2022-12-06T01:28:27.600Z,7.57
2022-12-06T01:30:54.253Z,7.80
2022-12-06T01:33:20.802Z,7.73
2022-12-06T01:35:47.348Z,7.16
2022-12-06T01:38:14.176Z,7.32
2022-12-06T01:40:43.541Z,7.48
2022-12-06T01:43:37.563Z,7.34
2022-12-06T01:46:12.920Z,7.75
2022-12-06T01:48:41.305Z,7.09
2022-12-06T01:51:12.603Z,7.31
2022-12-06T01:53:43.212Z,6.70
2022-12-06T01:56:10.618Z,7.03
2022-12-06T01:58:41.377Z,6.90
2022-12-06T02:01:09.893Z,6.85
2022-12-06T02:03:36.712Z,7.28
2022-12-06T02:06:08.128Z,6.92
2022-12-06T02:08:36.524Z,7.31
2022-12-06T02:11:04.506Z,7.18
2022-12-06T02:13:33.457Z,6.96
2022-12-06T02:16:44.848Z,7.05
2022-12-06T02:19:37.638Z,7.50
2022-12-06T02:22:25.903Z,7.14
2022-12-06T02:25:26.341Z,7.32
2022-12-06T02:28:25.989Z,7.73
2022-12-06T02:31:17.058Z,7.88
2022-12-06T02:33:58.497Z,8.06
2022-12-06T02:36:47.156Z,8.46
2022-12-06T02:39:28.473Z,8.16
2022-12-06T02:42:05.766Z,8.40
2022-12-06T02:44:39.466Z,8.52
2022-12-06T02:47:10.410Z,8.47
2022-12-06T02:49:44.963Z,8.31
2022-12-06T02:52:14.154Z,8.57
2022-12-06T02:54:44.941Z,8.54
2022-12-06T02:57:11.673Z,8.55
2022-12-06T02:59:38.156Z,8.27
2022-12-06T03:02:10.740Z,8.43
2022-12-06T03:05:05.440Z,8.18
2022-12-06T03:07:39.485Z,7.52
2022-12-06T03:10:31.766Z,7.66
2022-12-06T03:13:25.706Z,7.79
2022-12-06T03:16:06.279Z,7.95
2022-12-06T03:18:50.508Z,8.33
2022-12-06T03:21:47.016Z,7.68
2022-12-06T03:24:15.787Z,8.12
2022-12-06T03:26:48.085Z,8.12
2022-12-06T03:29:20.589Z,7.79
2022-12-06T03:31:49.753Z,8.00
2022-12-06T03:34:25.441Z,7.85
2022-12-06T03:36:53.283Z,7.94
2022-12-06T03:39:29.046Z,8.25
2022-12-06T03:41:59.221Z,7.97
2022-12-06T03:44:26.443Z,7.82
2022-12-06T03:47:02.676Z,8.48
2022-12-06T03:49:38.459Z,8.07
2022-12-06T03:52:05.757Z,8.05
2022-12-06T03:54:32.256Z,8.35
2022-12-06T03:56:58.723Z,8.36
2022-12-06T03:59:25.266Z,8.42
2022-12-06T04:01:51.769Z,8.15
2022-12-06T04:04:18.315Z,8.47
2022-12-06T04:06:44.837Z,8.67
2022-12-06T04:09:11.268Z,9.03
2022-12-06T04:11:37.722Z,9.08
2022-12-06T04:14:24.179Z,9.00
2022-12-06T04:17:08.958Z,8.87
2022-12-06T04:19:52.936Z,9.32
2022-12-06T04:22:19.369Z,8.91
2022-12-06T04:24:45.833Z,9.21
2022-12-06T04:27:12.284Z,9.19
2022-12-06T04:29:38.720Z,9.24
2022-12-06T04:32:05.188Z,8.90
2022-12-06T04:34:31.642Z,8.88
2022-12-06T04:36:58.187Z,9.13
2022-12-06T04:39:25.516Z,9.23
2022-12-06T04:41:52.653Z,9.27
2022-12-06T04:44:19.100Z,9.24
2022-12-06T04:46:45.654Z,9.49
2022-12-06T04:49:12.167Z,8.99
2022-12-06T04:51:38.748Z,9.17
2022-12-06T04:54:05.323Z,9.25
2022-12-06T04:56:31.760Z,9.32
2022-12-06T04:58:58.313Z,9.25
2022-12-06T05:01:24.805Z,8.97
2022-12-06T05:03:51.396Z,8.90
2022-12-06T05:06:17.846Z,9.38
2022-12-06T05:08:44.416Z,8.93
2022-12-06T05:11:10.878Z,8.79
2022-12-06T05:13:37.401Z,9.24
2022-12-06T05:16:06.763Z,8.90
2022-12-06T05:18:34.185Z,9.27
2022-12-06T05:21:05.264Z,9.20
2022-12-06T05:23:33.734Z,9.60
2022-12-06T05:26:06.103Z,9.87
2022-12-06T05:28:33.544Z,9.44
2022-12-06T05:31:00.058Z,9.72
2022-12-06T05:33:27.008Z,9.99
2022-12-06T05:35:53.847Z,10.13
2022-12-06T05:38:21.434Z,10.41
2022-12-06T05:40:48.844Z,9.77
2022-12-06T05:43:15.953Z,10.18
2022-12-06T05:45:42.789Z,9.86
2022-12-06T05:48:09.773Z,9.81
2022-12-06T05:50:36.856Z,9.75
2022-12-06T05:53:04.103Z,10.52
2022-12-06T05:55:30.568Z,10.33
2022-12-06T05:57:57.085Z,9.96
2022-12-06T06:00:23.654Z,10.33
2022-12-06T06:02:50.670Z,10.23
2022-12-06T06:05:17.389Z,10.29
2022-12-06T06:07:43.917Z,10.78
2022-12-06T06:10:11.105Z,10.99
2022-12-06T06:12:37.589Z,10.96
2022-12-06T06:15:04.772Z,11.17
2022-12-06T06:17:31.228Z,12.06
2022-12-06T06:19:57.669Z,12.13
2022-12-06T06:22:24.155Z,11.33
2022-12-06T06:24:50.693Z,10.81
2022-12-06T06:27:17.280Z,10.85
2022-12-06T06:29:45.479Z,11.05
2022-12-06T06:32:12.251Z,10.56
2022-12-06T06:34:38.820Z,11.55
2022-12-06T06:37:05.312Z,11.62
2022-12-06T06:39:31.780Z,11.07
2022-12-06T06:41:58.362Z,10.96
2022-12-06T06:44:24.935Z,10.60
2022-12-06T06:46:51.429Z,10.97
2022-12-06T06:49:18.026Z,11.04
2022-12-06T06:51:45.343Z,10.26
2022-12-06T06:54:12.150Z,10.28
2022-12-06T06:56:39.098Z,9.87
2022-12-06T06:59:05.579Z,10.29
2022-12-06T07:01:32.216Z,10.18
2022-12-06T07:03:58.804Z,10.56
2022-12-06T07:06:25.502Z,9.96
2022-12-06T07:08:51.984Z,9.59
2022-12-06T07:11:18.484Z,9.21
2022-12-06T07:13:49.692Z,9.18
2022-12-06T07:16:19.246Z,9.25
2022-12-06T07:18:45.925Z,9.70
2022-12-06T07:21:15.047Z,9.65
2022-12-06T07:23:42.560Z,9.24
2022-12-06T07:26:15.547Z,9.61
2022-12-06T07:28:44.136Z,9.40
2022-12-06T07:31:17.409Z,9.68
2022-12-06T07:33:45.694Z,9.57
2022-12-06T07:36:14.569Z,9.00
2022-12-06T07:38:43.325Z,9.56
2022-12-06T07:41:12.902Z,9.60
2022-12-06T07:43:39.531Z,9.48
2022-12-06T07:46:11.157Z,9.62
2022-12-06T07:48:37.682Z,9.09
2022-12-06T07:51:05.293Z,8.10
2022-12-06T07:53:31.757Z,9.11
2022-12-06T07:55:58.269Z,8.49
2022-12-06T07:58:24.717Z,8.52
2022-12-06T08:00:51.195Z,8.43
2022-12-06T08:03:17.752Z,8.72
2022-12-06T08:05:53.514Z,9.29
2022-12-06T08:08:23.837Z,9.30
2022-12-06T08:10:54.609Z,9.46
2022-12-06T08:13:21.085Z,9.11
2022-12-06T08:15:47.565Z,8.99
2022-12-06T08:18:14.120Z,9.27
2022-12-06T08:20:40.585Z,9.14
2022-12-06T08:23:07.110Z,9.86
2022-12-06T08:25:33.621Z,9.79
2022-12-06T08:28:00.131Z,9.87
2022-12-06T08:30:26.704Z,10.04
2022-12-06T08:32:53.213Z,10.00
2022-12-06T08:35:20.085Z,10.28
2022-12-06T08:37:46.629Z,10.52
2022-12-06T08:40:13.605Z,10.59
2022-12-06T08:42:41.888Z,11.08
2022-12-06T08:45:09.108Z,12.08
2022-12-06T08:47:37.786Z,11.96
2022-12-06T08:50:06.027Z,11.13
2022-12-06T08:52:32.666Z,11.16
2022-12-06T08:54:59.340Z,10.83
2022-12-06T08:57:27.237Z,10.84
2022-12-06T09:00:04.400Z,12.05
2022-12-06T09:02:30.999Z,11.90
2022-12-06T09:04:58.739Z,11.59
2022-12-06T09:07:26.645Z,12.27
2022-12-06T09:09:54.227Z,12.55
2022-12-06T09:12:21.134Z,11.91
2022-12-06T09:14:47.713Z,11.86
2022-12-06T09:17:14.396Z,11.58
2022-12-06T09:19:40.924Z,11.97
2022-12-06T09:22:07.482Z,11.57
2022-12-06T09:24:34.055Z,11.70
2022-12-06T09:27:00.820Z,12.29
2022-12-06T09:29:27.386Z,13.65
2022-12-06T09:31:54.028Z,13.26
2022-12-06T09:34:20.555Z,12.67
2022-12-06T09:36:57.569Z,13.05
2022-12-06T09:39:49.765Z,13.55
2022-12-06T09:42:38.410Z,15.79
2022-12-06T09:45:37.694Z,13.10
2022-12-06T09:48:07.276Z,11.33
2022-12-06T09:50:46.513Z,10.68
2022-12-06T09:53:47.273Z,11.26
2022-12-06T09:56:35.930Z,11.15
2022-12-06T09:59:10.167Z,12.62
2022-12-06T10:01:48.285Z,12.72
2022-12-06T10:04:41.294Z,13.02
2022-12-06T10:07:36.671Z,12.72
2022-12-06T10:10:26.133Z,12.72
2022-12-06T10:13:06.993Z,12.09
2022-12-06T10:16:10.967Z,12.61
2022-12-06T10:18:56.461Z,12.34
2022-12-06T10:21:46.405Z,12.40
2022-12-06T10:24:32.916Z,12.03
2022-12-06T10:27:11.953Z,12.50
2022-12-06T10:30:01.607Z,13.15
2022-12-06T10:32:45.021Z,13.22
2022-12-06T10:35:22.431Z,13.29
2022-12-06T10:38:22.625Z,13.55
2022-12-06T10:41:13.699Z,13.29
2022-12-06T10:43:49.340Z,13.73
2022-12-06T10:46:41.710Z,13.35
2022-12-06T10:49:32.230Z,13.58
2022-12-06T10:52:22.557Z,14.04
2022-12-06T10:54:56.594Z,14.40
2022-12-06T10:57:37.614Z,14.23
2022-12-06T11:00:26.863Z,14.14
2022-12-06T11:02:57.672Z,13.66
2022-12-06T11:05:51.487Z,15.05
2022-12-06T11:08:35.836Z,15.00
2022-12-06T11:11:06.187Z,15.46
2022-12-06T11:13:42.308Z,15.92
2022-12-06T11:16:37.979Z,16.47
2022-12-06T11:19:35.256Z,15.20
2022-12-06T11:22:40.400Z,15.61
2022-12-06T11:25:34.661Z,15.42
2022-12-06T11:28:13.371Z,15.07
2022-12-06T11:30:39.933Z,14.72
2022-12-06T11:33:06.709Z,15.62
2022-12-06T11:35:33.215Z,15.60
2022-12-06T11:38:06.129Z,15.96
2022-12-06T11:40:36.571Z,16.36
2022-12-06T11:43:11.199Z,15.71
2022-12-06T11:45:41.753Z,15.98
2022-12-06T11:48:17.471Z,16.33
2022-12-06T11:50:47.570Z,17.10
2022-12-06T11:53:25.672Z,16.12
2022-12-06T11:55:56.957Z,16.44
2022-12-06T11:58:35.115Z,16.20
2022-12-06T12:01:06.397Z,16.10
2022-12-06T12:03:36.257Z,16.79
2022-12-06T12:06:08.920Z,16.60
2022-12-06T12:08:37.068Z,16.81
2022-12-06T12:11:04.594Z,16.76
2022-12-06T12:13:32.421Z,16.49
2022-12-06T12:16:03.700Z,16.07
2022-12-06T12:18:35.860Z,19.58
2022-12-06T12:21:05.218Z,17.15
2022-12-06T12:23:45.411Z,16.43
2022-12-06T12:26:18.747Z,16.62
2022-12-06T12:29:02.317Z,17.24
2022-12-06T12:31:28.903Z,16.38
2022-12-06T12:34:18.067Z,15.70
2022-12-06T12:36:56.663Z,15.73
2022-12-06T12:39:25.524Z,16.46
2022-12-06T12:41:52.703Z,16.60
2022-12-06T12:44:42.644Z,15.81
2022-12-06T12:47:19.181Z,16.24
2022-12-06T12:50:17.710Z,16.95
2022-12-06T12:52:44.395Z,16.22
2022-12-06T12:55:26.821Z,16.31
2022-12-06T12:57:57.008Z,16.38
2022-12-06T13:00:41.594Z,17.08
2022-12-06T13:03:50.778Z,17.43
2022-12-06T13:06:26.313Z,17.11
2022-12-06T13:08:59.478Z,17.39
2022-12-06T13:11:28.274Z,17.02
2022-12-06T13:13:57.646Z,17.30
2022-12-06T13:16:32.308Z,17.39
2022-12-06T13:18:59.211Z,17.78
2022-12-06T13:21:37.835Z,17.53
2022-12-06T13:24:10.330Z,17.52
2022-12-06T13:26:41.367Z,18.12
2022-12-06T13:29:31.291Z,18.12
2022-12-06T13:32:04.085Z,17.47
2022-12-06T13:34:37.864Z,17.90
2022-12-06T13:37:36.556Z,18.67
2022-12-06T13:40:06.175Z,18.23
2022-12-06T13:42:38.424Z,18.30
2022-12-06T13:45:06.843Z,18.31
2022-12-06T13:47:33.342Z,18.15
2022-12-06T13:50:04.376Z,17.95
2022-12-06T13:52:43.205Z,18.07
2022-12-06T13:55:24.810Z,17.40
2022-12-06T13:58:00.281Z,18.65
2022-12-06T14:00:29.668Z,18.40
2022-12-06T14:03:17.939Z,17.69
2022-12-06T14:06:14.204Z,17.84
2022-12-06T14:08:57.330Z,17.61
2022-12-06T14:11:27.857Z,18.16
2022-12-06T14:13:57.026Z,17.69
2022-12-06T14:16:39.758Z,18.12
2022-12-06T14:19:21.637Z,17.40
2022-12-06T14:22:02.722Z,17.17
2022-12-06T14:24:36.466Z,18.07
2022-12-06T14:27:15.341Z,18.33
2022-12-06T14:29:43.589Z,18.12
2022-12-06T14:32:10.777Z,17.80
2022-12-06T14:34:37.536Z,17.32
2022-12-06T14:37:22.037Z,17.59
2022-12-06T14:39:53.294Z,17.41
2022-12-06T14:42:20.952Z,16.87
2022-12-06T14:45:01.902Z,17.28
2022-12-06T14:47:30.378Z,17.30
2022-12-06T14:50:00.877Z,17.92
2022-12-06T14:52:30.783Z,18.68
2022-12-06T14:55:17.457Z,18.03
2022-12-06T14:57:47.761Z,18.70
2022-12-06T15:00:26.503Z,18.72
2022-12-06T15:03:07.955Z,18.34
2022-12-06T15:05:36.150Z,18.50
2022-12-06T15:08:27.590Z,18.51
2022-12-06T15:11:00.153Z,18.44
2022-12-06T15:13:27.945Z,18.56
2022-12-06T15:16:07.041Z,19.08
2022-12-06T15:18:37.667Z,18.73
2022-12-06T15:21:11.446Z,18.83
2022-12-06T15:23:46.352Z,18.95
2022-12-06T15:26:12.907Z,19.39
2022-12-06T15:28:40.237Z,19.22
2022-12-06T15:31:13.757Z,18.91
2022-12-06T15:33:40.302Z,19.07
2022-12-06T15:36:06.841Z,19.45
2022-12-06T15:38:33.380Z,20.45
2022-12-06T15:40:59.876Z,20.27
2022-12-06T15:43:33.541Z,19.96
2022-12-06T15:46:03.070Z,19.56
2022-12-06T15:48:31.921Z,19.93
2022-12-06T15:50:59.204Z,20.11
2022-12-06T15:53:27.801Z,19.99
2022-12-06T15:55:54.414Z,20.65
2022-12-06T15:58:20.986Z,20.16
2022-12-06T16:00:47.504Z,20.23
2022-12-06T16:03:14.003Z,20.33
2022-12-06T16:05:40.797Z,20.56
2022-12-06T16:08:08.062Z,20.20
2022-12-06T16:11:09.674Z,19.82
2022-12-06T16:13:21.327Z,20.23
2022-12-06T16:15:47.996Z,20.13
2022-12-06T16:18:14.561Z,20.57
2022-12-06T16:20:41.075Z,21.31
2022-12-06T16:23:14.112Z,20.73
2022-12-06T16:25:40.745Z,20.93
2022-12-06T16:28:07.913Z,20.94
2022-12-06T16:30:35.678Z,21.18
2022-12-06T16:33:07.390Z,21.70
2022-12-06T16:35:34.733Z,24.06
2022-12-06T16:38:01.265Z,25.55
2022-12-06T16:40:28.103Z,24.39
2022-12-06T16:42:54.621Z,23.48
2022-12-06T16:45:21.142Z,22.41
2022-12-06T16:47:47.593Z,22.93
2022-12-06T16:50:34.962Z,22.78
2022-12-06T16:53:03.984Z,22.87
2022-12-06T16:55:31.082Z,22.00
2022-12-06T16:57:57.794Z,22.10
2022-12-06T17:00:24.345Z,22.45
2022-12-06T17:02:50.832Z,22.80
2022-12-06T17:05:23.488Z,22.84
2022-12-06T17:07:50.930Z,23.15
2022-12-06T17:10:18.682Z,23.09
2022-12-06T17:12:47.721Z,22.56
2022-12-06T17:15:17.297Z,22.47
2022-12-06T17:17:43.827Z,22.71
2022-12-06T17:20:13.324Z,22.27
2022-12-06T17:22:40.418Z,23.19
2022-12-06T17:25:08.568Z,23.50
2022-12-06T17:27:35.353Z,23.63
2022-12-06T17:30:01.866Z,23.13
2022-12-06T17:32:28.439Z,23.25
2022-12-06T17:34:54.946Z,23.40
2022-12-06T17:37:21.466Z,23.36
2022-12-06T17:39:48.195Z,24.01
2022-12-06T17:42:14.851Z,25.50
2022-12-06T17:44:41.372Z,27.67
2022-12-06T17:47:07.892Z,26.73
2022-12-06T17:49:34.383Z,27.73
2022-12-06T17:52:00.962Z,26.83
2022-12-06T17:54:27.530Z,26.16
2022-12-06T17:56:54.433Z,26.67
2022-12-06T17:59:23.421Z,26.30
2022-12-06T18:04:37.613Z,33.48
2022-12-06T18:07:04.192Z,44.20
2022-12-06T18:09:30.734Z,36.30
2022-12-06T18:11:57.227Z,32.47
2022-12-06T18:14:23.727Z,29.37
2022-12-06T18:16:50.364Z,25.98
2022-12-06T18:19:20.656Z,24.85
2022-12-06T18:21:48.554Z,26.83
2022-12-06T18:24:22.511Z,27.41
2022-12-06T18:26:50.034Z,29.73
2022-12-06T18:29:23.530Z,30.04
2022-12-06T18:31:51.248Z,31.11
2022-12-06T18:34:18.383Z,31.86
2022-12-06T18:36:44.928Z,28.51
2022-12-06T18:39:16.062Z,28.53
2022-12-06T18:41:46.234Z,28.46
2022-12-06T18:44:13.288Z,27.97
2022-12-06T18:46:40.646Z,26.80
2022-12-06T18:49:07.246Z,27.17
2022-12-06T18:51:36.279Z,27.48
2022-12-06T18:54:03.849Z,27.11
2022-12-06T18:56:32.114Z,27.43
2022-12-06T18:58:59.344Z,27.51
2022-12-06T19:01:31.755Z,27.69
2022-12-06T19:04:00.094Z,27.39
2022-12-06T19:06:29.800Z,27.83
2022-12-06T19:08:59.338Z,28.35
2022-12-06T19:11:25.880Z,29.24
2022-12-06T19:14:01.403Z,28.18
2022-12-06T19:16:39.682Z,28.95
2022-12-06T19:19:15.890Z,28.91
2022-12-06T19:21:42.924Z,29.25
2022-12-06T19:24:11.707Z,29.01
2022-12-06T19:26:38.205Z,30.72
2022-12-06T19:29:04.874Z,29.50
2022-12-06T19:31:31.341Z,29.00
2022-12-06T19:33:57.803Z,28.87
2022-12-06T19:36:26.988Z,29.43
2022-12-06T19:39:02.288Z,29.80
2022-12-06T19:41:29.471Z,29.55
2022-12-06T19:43:56.067Z,30.30
2022-12-06T19:46:26.004Z,30.83
2022-12-06T19:48:55.890Z,29.79
2022-12-06T19:51:22.981Z,30.64
2022-12-06T19:53:49.501Z,31.34
2022-12-06T19:56:16.071Z,30.98
2022-12-06T19:58:42.897Z,31.53
2022-12-06T20:01:11.830Z,29.93
2022-12-06T20:03:38.317Z,29.74
2022-12-06T20:06:17.774Z,28.79
2022-12-06T20:08:45.889Z,28.44
2022-12-06T20:11:16.082Z,28.52
2022-12-06T20:13:42.580Z,29.38
2022-12-06T20:16:09.104Z,29.87
2022-12-06T20:18:35.596Z,29.93
2022-12-06T20:21:02.142Z,29.41
2022-12-06T20:23:28.623Z,28.70
2022-12-06T20:25:57.274Z,27.79
2022-12-06T20:28:23.976Z,27.82
2022-12-06T20:30:50.558Z,28.32
2022-12-06T20:33:17.134Z,29.28
2022-12-06T20:35:43.626Z,29.53
2022-12-06T20:38:10.124Z,30.28
2022-12-06T20:40:36.652Z,30.21
2022-12-06T20:43:03.146Z,30.27
2022-12-06T20:45:29.778Z,29.22
2022-12-06T20:47:56.260Z,29.63
2022-12-06T20:50:22.767Z,29.21
2022-12-06T20:52:49.280Z,29.37
2022-12-06T20:55:15.798Z,29.54
2022-12-06T20:57:42.391Z,28.26
2022-12-06T21:00:10.263Z,28.38
2022-12-06T21:02:37.018Z,28.21
2022-12-06T21:05:04.463Z,28.03
2022-12-06T21:07:31.028Z,28.69
2022-12-06T21:09:57.596Z,27.59
2022-12-06T21:12:24.123Z,28.21
2022-12-06T21:14:50.759Z,28.21
2022-12-06T21:17:17.255Z,26.93
2022-12-06T21:19:43.778Z,27.83
2022-12-06T21:22:10.284Z,26.95
2022-12-06T21:24:36.756Z,27.16
2022-12-06T21:27:03.241Z,26.82
2022-12-06T21:29:31.132Z,27.04
2022-12-06T21:32:00.499Z,27.31
2022-12-06T21:34:26.969Z,27.59
2022-12-06T21:36:53.446Z,27.19
2022-12-06T21:39:19.918Z,27.54
2022-12-06T21:41:46.407Z,27.48
2022-12-06T21:44:12.916Z,27.01
2022-12-06T21:46:39.569Z,27.70
2022-12-06T21:49:06.193Z,27.87
2022-12-06T21:51:32.759Z,27.47
2022-12-06T21:53:59.582Z,27.29
2022-12-06T21:56:29.418Z,28.13
2022-12-06T21:58:56.039Z,28.40
2022-12-06T22:01:25.549Z,27.79
2022-12-06T22:03:54.206Z,27.48
2022-12-06T22:06:22.143Z,27.79
2022-12-06T22:08:49.338Z,27.24
2022-12-06T22:11:19.585Z,27.85
2022-12-06T22:13:47.134Z,27.18
2022-12-06T22:16:14.967Z,27.84
2022-12-06T22:18:45.829Z,27.12
2022-12-06T22:21:24.840Z,27.08
2022-12-06T22:23:52.003Z,27.25
2022-12-06T22:26:22.314Z,26.87
2022-12-06T22:28:50.151Z,26.25
2022-12-06T22:31:20.917Z,28.03
2022-12-06T22:33:49.270Z,27.37
2022-12-06T22:36:16.885Z,27.20
2022-12-06T22:38:43.981Z,25.81
2022-12-06T22:41:11.119Z,27.21
2022-12-06T22:43:37.665Z,27.24
2022-12-06T22:46:07.408Z,27.06
2022-12-06T22:48:33.928Z,27.08
2022-12-06T22:51:11.639Z,26.59
2022-12-06T22:53:39.976Z,26.98
2022-12-06T22:56:06.700Z,26.63
2022-12-06T22:58:33.614Z,26.58
2022-12-06T23:01:16.785Z,26.06
2022-12-06T23:03:45.529Z,26.68
2022-12-06T23:06:13.616Z,26.17
2022-12-06T23:08:41.168Z,26.00
2022-12-06T23:11:16.341Z,26.30
2022-12-06T23:13:43.383Z,25.46
2022-12-06T23:16:15.659Z,24.72
2022-12-06T23:18:43.162Z,24.36
2022-12-06T23:21:16.432Z,24.45
2022-12-06T23:23:46.424Z,24.05
2022-12-06T23:26:16.788Z,23.94
2022-12-06T23:28:43.730Z,23.41
2022-12-06T23:31:17.080Z,23.45
2022-12-06T23:33:45.526Z,23.49
2022-12-06T23:36:19.174Z,23.43
2022-12-06T23:38:46.492Z,23.33
2022-12-06T23:41:19.516Z,22.16
2022-12-06T23:43:46.422Z,22.42
2022-12-06T23:46:20.592Z,22.59
2022-12-06T23:48:48.965Z,21.93
2022-12-06T23:51:17.616Z,22.06
2022-12-06T23:53:44.758Z,21.40
2022-12-06T23:56:14.810Z,21.03
2022-12-06T23:58:43.140Z,21.90
